sensor_id;sensor_type;location;lat;lon;timestamp;P1;durP1;ratioP1;P2;durP2;ratioP2
9438;SDS011;5176;42.622;25.386;2023-04-12T00:00:09;7.33;;;6.63;;
9438;SDS011;5176;42.622;25.386;2023-04-12T00:02:38;8.97;;;6.90;;
9438;SDS011;5176;42.622;25.386;2023-04-12T00:05:09;7.57;;;6.87;;
9438;SDS011;5176;42.622;25.386;2023-04-12T00:07:39;6.60;;;6.00;;
9438;SDS011;5176;42.622;25.386;2023-04-12T00:10:12;7.20;;;6.50;;
9438;SDS011;5176;42.622;25.386;2023-04-12T00:12:40;8.90;;;6.97;;
9438;SDS011;5176;42.622;25.386;2023-04-12T00:15:11;7.43;;;6.70;;
9438;SDS011;5176;42.622;25.386;2023-04-12T00:17:40;8.60;;;7.00;;
9438;SDS011;5176;42.622;25.386;2023-04-12T00:20:09;7.60;;;6.80;;
9438;SDS011;5176;42.622;25.386;2023-04-12T00:22:38;8.70;;;7.80;;
9438;SDS011;5176;42.622;25.386;2023-04-12T00:25:08;7.70;;;7.00;;
9438;SDS011;5176;42.622;25.386;2023-04-12T00:27:37;7.60;;;6.80;;
9438;SDS011;5176;42.622;25.386;2023-04-12T00:30:06;8.23;;;7.30;;
9438;SDS011;5176;42.622;25.386;2023-04-12T00:32:37;8.63;;;7.50;;
9438;SDS011;5176;42.622;25.386;2023-04-12T00:35:06;9.70;;;7.80;;
9438;SDS011;5176;42.622;25.386;2023-04-12T00:37:35;8.40;;;7.53;;
9438;SDS011;5176;42.622;25.386;2023-04-12T00:40:04;7.90;;;7.20;;
9438;SDS011;5176;42.622;25.386;2023-04-12T00:42:35;8.87;;;7.90;;
9438;SDS011;5176;42.622;25.386;2023-04-12T00:45:05;8.27;;;7.47;;
9438;SDS011;5176;42.622;25.386;2023-04-12T00:47:34;8.13;;;7.23;;
9438;SDS011;5176;42.622;25.386;2023-04-12T00:50:06;8.33;;;7.53;;
9438;SDS011;5176;42.622;25.386;2023-04-12T00:52:36;8.67;;;7.77;;
9438;SDS011;5176;42.622;25.386;2023-04-12T00:55:07;10.27;;;7.30;;
9438;SDS011;5176;42.622;25.386;2023-04-12T00:57:36;8.07;;;7.17;;
9438;SDS011;5176;42.622;25.386;2023-04-12T01:00:07;8.60;;;7.67;;
9438;SDS011;5176;42.622;25.386;2023-04-12T01:02:38;8.70;;;7.77;;
9438;SDS011;5176;42.622;25.386;2023-04-12T01:05:12;8.70;;;7.77;;
9438;SDS011;5176;42.622;25.386;2023-04-12T01:07:50;9.47;;;7.30;;
9438;SDS011;5176;42.622;25.386;2023-04-12T01:10:27;8.60;;;7.70;;
9438;SDS011;5176;42.622;25.386;2023-04-12T01:13:07;8.60;;;7.70;;
9438;SDS011;5176;42.622;25.386;2023-04-12T01:15:46;7.60;;;6.80;;
9438;SDS011;5176;42.622;25.386;2023-04-12T01:18:23;8.10;;;6.93;;
9438;SDS011;5176;42.622;25.386;2023-04-12T01:20:57;8.03;;;6.73;;
9438;SDS011;5176;42.622;25.386;2023-04-12T01:23:37;7.43;;;6.73;;
9438;SDS011;5176;42.622;25.386;2023-04-12T01:26:30;7.47;;;6.77;;
9438;SDS011;5176;42.622;25.386;2023-04-12T01:29:06;7.60;;;6.77;;
9438;SDS011;5176;42.622;25.386;2023-04-12T01:31:38;7.57;;;6.77;;
9438;SDS011;5176;42.622;25.386;2023-04-12T01:34:08;7.23;;;6.53;;
9438;SDS011;5176;42.622;25.386;2023-04-12T01:36:39;7.70;;;6.77;;
9438;SDS011;5176;42.622;25.386;2023-04-12T01:39:10;7.03;;;6.30;;
9438;SDS011;5176;42.622;25.386;2023-04-12T01:41:39;7.03;;;6.33;;
9438;SDS011;5176;42.622;25.386;2023-04-12T01:44:13;6.93;;;6.23;;
9438;SDS011;5176;42.622;25.386;2023-04-12T01:46:42;8.57;;;7.07;;
9438;SDS011;5176;42.622;25.386;2023-04-12T01:49:13;9.20;;;7.13;;
9438;SDS011;5176;42.622;25.386;2023-04-12T01:51:48;7.37;;;6.67;;
9438;SDS011;5176;42.622;25.386;2023-04-12T01:54:21;6.93;;;6.30;;
9438;SDS011;5176;42.622;25.386;2023-04-12T01:56:55;8.20;;;6.77;;
9438;SDS011;5176;42.622;25.386;2023-04-12T01:59:29;6.20;;;5.60;;
9438;SDS011;5176;42.622;25.386;2023-04-12T02:02:00;7.07;;;6.37;;
9438;SDS011;5176;42.622;25.386;2023-04-12T02:04:30;6.40;;;5.77;;
9438;SDS011;5176;42.622;25.386;2023-04-12T02:06:59;7.57;;;6.33;;
9438;SDS011;5176;42.622;25.386;2023-04-12T02:09:28;6.97;;;6.23;;
9438;SDS011;5176;42.622;25.386;2023-04-12T02:11:57;6.40;;;5.80;;
9438;SDS011;5176;42.622;25.386;2023-04-12T02:14:28;6.77;;;6.17;;
9438;SDS011;5176;42.622;25.386;2023-04-12T02:16:57;8.33;;;6.40;;
9438;SDS011;5176;42.622;25.386;2023-04-12T02:19:27;8.60;;;6.53;;
9438;SDS011;5176;42.622;25.386;2023-04-12T02:21:57;6.50;;;5.77;;
9438;SDS011;5176;42.622;25.386;2023-04-12T02:24:26;6.87;;;5.43;;
9438;SDS011;5176;42.622;25.386;2023-04-12T02:26:56;6.33;;;5.73;;
9438;SDS011;5176;42.622;25.386;2023-04-12T02:29:28;5.97;;;5.37;;
9438;SDS011;5176;42.622;25.386;2023-04-12T02:31:57;6.40;;;5.77;;
9438;SDS011;5176;42.622;25.386;2023-04-12T02:34:25;7.60;;;6.10;;
9438;SDS011;5176;42.622;25.386;2023-04-12T02:36:56;7.10;;;6.27;;
9438;SDS011;5176;42.622;25.386;2023-04-12T02:39:25;6.80;;;5.83;;
9438;SDS011;5176;42.622;25.386;2023-04-12T02:41:54;6.30;;;5.70;;
9438;SDS011;5176;42.622;25.386;2023-04-12T02:44:23;5.80;;;5.30;;
9438;SDS011;5176;42.622;25.386;2023-04-12T02:46:54;6.53;;;5.80;;
9438;SDS011;5176;42.622;25.386;2023-04-12T02:49:23;6.30;;;5.70;;
9438;SDS011;5176;42.622;25.386;2023-04-12T02:51:52;8.10;;;6.80;;
9438;SDS011;5176;42.622;25.386;2023-04-12T02:54:20;6.33;;;5.43;;
9438;SDS011;5176;42.622;25.386;2023-04-12T02:56:49;5.70;;;5.20;;
9438;SDS011;5176;42.622;25.386;2023-04-12T02:59:18;7.47;;;6.50;;
9438;SDS011;5176;42.622;25.386;2023-04-12T03:01:46;6.30;;;5.70;;
9438;SDS011;5176;42.622;25.386;2023-04-12T03:04:18;7.63;;;5.90;;
9438;SDS011;5176;42.622;25.386;2023-04-12T03:06:48;6.43;;;5.67;;
9438;SDS011;5176;42.622;25.386;2023-04-12T03:09:19;5.23;;;4.73;;
9438;SDS011;5176;42.622;25.386;2023-04-12T03:11:48;6.43;;;5.73;;
9438;SDS011;5176;42.622;25.386;2023-04-12T03:14:17;6.67;;;6.03;;
9438;SDS011;5176;42.622;25.386;2023-04-12T03:16:46;8.73;;;6.17;;
9438;SDS011;5176;42.622;25.386;2023-04-12T03:19:18;7.40;;;5.67;;
9438;SDS011;5176;42.622;25.386;2023-04-12T03:21:47;6.73;;;5.83;;
9438;SDS011;5176;42.622;25.386;2023-04-12T03:24:16;5.90;;;5.30;;
9438;SDS011;5176;42.622;25.386;2023-04-12T03:26:45;7.43;;;5.60;;
9438;SDS011;5176;42.622;25.386;2023-04-12T03:29:16;6.07;;;5.47;;
9438;SDS011;5176;42.622;25.386;2023-04-12T03:31:44;6.23;;;5.47;;
9438;SDS011;5176;42.622;25.386;2023-04-12T03:34:13;6.57;;;5.90;;
9438;SDS011;5176;42.622;25.386;2023-04-12T03:36:44;6.97;;;6.27;;
9438;SDS011;5176;42.622;25.386;2023-04-12T03:39:13;8.63;;;7.40;;
9438;SDS011;5176;42.622;25.386;2023-04-12T03:41:41;10.53;;;7.80;;
9438;SDS011;5176;42.622;25.386;2023-04-12T03:44:10;11.53;;;9.53;;
9438;SDS011;5176;42.622;25.386;2023-04-12T03:46:39;6.57;;;5.87;;
9438;SDS011;5176;42.622;25.386;2023-04-12T03:49:08;7.17;;;5.77;;
9438;SDS011;5176;42.622;25.386;2023-04-12T03:51:37;8.27;;;7.03;;
9438;SDS011;5176;42.622;25.386;2023-04-12T03:54:10;6.17;;;5.57;;
9438;SDS011;5176;42.622;25.386;2023-04-12T03:56:39;5.60;;;5.10;;
9438;SDS011;5176;42.622;25.386;2023-04-12T03:59:08;7.67;;;6.87;;
9438;SDS011;5176;42.622;25.386;2023-04-12T04:01:38;6.60;;;6.00;;
9438;SDS011;5176;42.622;25.386;2023-04-12T04:04:08;5.80;;;5.30;;
9438;SDS011;5176;42.622;25.386;2023-04-12T04:06:37;7.17;;;5.90;;
9438;SDS011;5176;42.622;25.386;2023-04-12T04:09:05;5.97;;;5.37;;
9438;SDS011;5176;42.622;25.386;2023-04-12T04:11:36;8.03;;;6.97;;
9438;SDS011;5176;42.622;25.386;2023-04-12T04:14:05;17.97;;;10.40;;
9438;SDS011;5176;42.622;25.386;2023-04-12T04:16:33;9.23;;;7.97;;
9438;SDS011;5176;42.622;25.386;2023-04-12T04:19:02;9.40;;;7.60;;
9438;SDS011;5176;42.622;25.386;2023-04-12T04:21:31;7.63;;;6.83;;
9438;SDS011;5176;42.622;25.386;2023-04-12T04:23:59;6.07;;;5.50;;
9438;SDS011;5176;42.622;25.386;2023-04-12T04:26:29;7.60;;;6.47;;
9438;SDS011;5176;42.622;25.386;2023-04-12T04:29:01;9.83;;;8.83;;
9438;SDS011;5176;42.622;25.386;2023-04-12T04:31:30;7.43;;;6.37;;
9438;SDS011;5176;42.622;25.386;2023-04-12T04:34:02;20.93;;;17.37;;
9438;SDS011;5176;42.622;25.386;2023-04-12T04:36:33;7.17;;;6.43;;
9438;SDS011;5176;42.622;25.386;2023-04-12T04:39:02;6.20;;;5.43;;
9438;SDS011;5176;42.622;25.386;2023-04-12T04:41:31;7.87;;;6.70;;
9438;SDS011;5176;42.622;25.386;2023-04-12T04:44:06;7.43;;;6.73;;
9438;SDS011;5176;42.622;25.386;2023-04-12T04:46:35;4.63;;;4.23;;
9438;SDS011;5176;42.622;25.386;2023-04-12T04:49:05;6.47;;;5.50;;
9438;SDS011;5176;42.622;25.386;2023-04-12T04:51:34;6.83;;;5.90;;
9438;SDS011;5176;42.622;25.386;2023-04-12T04:54:03;11.37;;;7.23;;
9438;SDS011;5176;42.622;25.386;2023-04-12T04:56:32;6.63;;;5.93;;
9438;SDS011;5176;42.622;25.386;2023-04-12T04:59:01;5.87;;;5.20;;
9438;SDS011;5176;42.622;25.386;2023-04-12T05:01:31;7.40;;;6.43;;
9438;SDS011;5176;42.622;25.386;2023-04-12T05:04:01;6.10;;;5.50;;
9438;SDS011;5176;42.622;25.386;2023-04-12T05:06:30;10.23;;;8.03;;
9438;SDS011;5176;42.622;25.386;2023-04-12T05:08:59;8.57;;;7.27;;
9438;SDS011;5176;42.622;25.386;2023-04-12T05:11:28;14.10;;;10.90;;
9438;SDS011;5176;42.622;25.386;2023-04-12T05:13:56;8.17;;;6.53;;
9438;SDS011;5176;42.622;25.386;2023-04-12T05:16:26;7.70;;;6.90;;
9438;SDS011;5176;42.622;25.386;2023-04-12T05:18:56;7.20;;;6.43;;
9438;SDS011;5176;42.622;25.386;2023-04-12T05:21:25;7.10;;;6.40;;
9438;SDS011;5176;42.622;25.386;2023-04-12T05:23:54;7.03;;;5.73;;
9438;SDS011;5176;42.622;25.386;2023-04-12T05:26:23;6.17;;;5.60;;
9438;SDS011;5176;42.622;25.386;2023-04-12T05:28:51;6.47;;;5.87;;
9438;SDS011;5176;42.622;25.386;2023-04-12T05:31:20;8.90;;;6.97;;
9438;SDS011;5176;42.622;25.386;2023-04-12T05:33:50;7.47;;;6.77;;
9438;SDS011;5176;42.622;25.386;2023-04-12T05:36:21;7.77;;;6.97;;
9438;SDS011;5176;42.622;25.386;2023-04-12T05:38:50;7.23;;;6.53;;
9438;SDS011;5176;42.622;25.386;2023-04-12T05:41:19;7.57;;;6.57;;
9438;SDS011;5176;42.622;25.386;2023-04-12T05:43:47;7.30;;;6.60;;
9438;SDS011;5176;42.622;25.386;2023-04-12T05:46:16;8.30;;;7.43;;
9438;SDS011;5176;42.622;25.386;2023-04-12T05:48:45;7.60;;;6.80;;
9438;SDS011;5176;42.622;25.386;2023-04-12T05:51:13;8.20;;;7.10;;
9438;SDS011;5176;42.622;25.386;2023-04-12T05:53:44;9.43;;;7.93;;
9438;SDS011;5176;42.622;25.386;2023-04-12T05:56:12;9.00;;;7.70;;
9438;SDS011;5176;42.622;25.386;2023-04-12T05:58:42;8.50;;;7.53;;
9438;SDS011;5176;42.622;25.386;2023-04-12T06:01:10;8.17;;;7.30;;
9438;SDS011;5176;42.622;25.386;2023-04-12T06:03:40;7.83;;;7.13;;
9438;SDS011;5176;42.622;25.386;2023-04-12T06:06:10;8.27;;;7.47;;
9438;SDS011;5176;42.622;25.386;2023-04-12T06:08:39;8.83;;;7.93;;
9438;SDS011;5176;42.622;25.386;2023-04-12T06:11:09;9.90;;;8.80;;
9438;SDS011;5176;42.622;25.386;2023-04-12T06:13:38;9.10;;;8.20;;
9438;SDS011;5176;42.622;25.386;2023-04-12T06:16:07;12.30;;;11.00;;
9438;SDS011;5176;42.622;25.386;2023-04-12T06:18:36;11.87;;;10.03;;
9438;SDS011;5176;42.622;25.386;2023-04-12T06:21:05;11.67;;;10.30;;
9438;SDS011;5176;42.622;25.386;2023-04-12T06:23:34;9.93;;;8.77;;
9438;SDS011;5176;42.622;25.386;2023-04-12T06:26:03;9.10;;;7.83;;
9438;SDS011;5176;42.622;25.386;2023-04-12T06:28:34;9.97;;;8.93;;
9438;SDS011;5176;42.622;25.386;2023-04-12T06:31:02;10.17;;;9.10;;
9438;SDS011;5176;42.622;25.386;2023-04-12T06:33:31;10.60;;;8.97;;
9438;SDS011;5176;42.622;25.386;2023-04-12T06:36:02;8.30;;;7.50;;
9438;SDS011;5176;42.622;25.386;2023-04-12T06:38:31;8.83;;;7.93;;
9438;SDS011;5176;42.622;25.386;2023-04-12T06:41:00;8.50;;;7.47;;
9438;SDS011;5176;42.622;25.386;2023-04-12T06:43:29;9.83;;;8.57;;
9438;SDS011;5176;42.622;25.386;2023-04-12T06:45:59;9.30;;;8.30;;
9438;SDS011;5176;42.622;25.386;2023-04-12T06:48:29;9.27;;;8.43;;
9438;SDS011;5176;42.622;25.386;2023-04-12T06:50:57;8.83;;;8.03;;
9438;SDS011;5176;42.622;25.386;2023-04-12T06:53:27;9.17;;;8.20;;
9438;SDS011;5176;42.622;25.386;2023-04-12T06:55:56;8.97;;;8.10;;
9438;SDS011;5176;42.622;25.386;2023-04-12T06:58:26;10.17;;;8.20;;
9438;SDS011;5176;42.622;25.386;2023-04-12T07:01:04;7.77;;;6.97;;
9438;SDS011;5176;42.622;25.386;2023-04-12T07:03:33;8.20;;;7.40;;
9438;SDS011;5176;42.622;25.386;2023-04-12T07:06:02;8.93;;;7.90;;
9438;SDS011;5176;42.622;25.386;2023-04-12T07:08:31;9.57;;;7.67;;
9438;SDS011;5176;42.622;25.386;2023-04-12T07:10:59;8.90;;;8.00;;
9438;SDS011;5176;42.622;25.386;2023-04-12T07:13:28;8.00;;;7.20;;
9438;SDS011;5176;42.622;25.386;2023-04-12T07:15:57;7.77;;;7.03;;
9438;SDS011;5176;42.622;25.386;2023-04-12T07:18:28;7.57;;;6.70;;
9438;SDS011;5176;42.622;25.386;2023-04-12T07:20:57;8.50;;;7.67;;
9438;SDS011;5176;42.622;25.386;2023-04-12T07:23:25;6.87;;;6.17;;
9438;SDS011;5176;42.622;25.386;2023-04-12T07:25:57;7.23;;;6.13;;
9438;SDS011;5176;42.622;25.386;2023-04-12T07:28:27;7.30;;;6.47;;
9438;SDS011;5176;42.622;25.386;2023-04-12T07:30:55;6.50;;;5.90;;
9438;SDS011;5176;42.622;25.386;2023-04-12T07:33:24;8.47;;;6.73;;
9438;SDS011;5176;42.622;25.386;2023-04-12T07:35:54;6.63;;;5.60;;
9438;SDS011;5176;42.622;25.386;2023-04-12T07:38:24;6.97;;;5.87;;
9438;SDS011;5176;42.622;25.386;2023-04-12T07:40:53;5.40;;;4.90;;
9438;SDS011;5176;42.622;25.386;2023-04-12T07:43:22;5.67;;;5.07;;
9438;SDS011;5176;42.622;25.386;2023-04-12T07:45:53;4.90;;;4.50;;
9438;SDS011;5176;42.622;25.386;2023-04-12T07:48:21;5.03;;;4.53;;
9438;SDS011;5176;42.622;25.386;2023-04-12T07:50:50;11.37;;;7.70;;
9438;SDS011;5176;42.622;25.386;2023-04-12T07:53:21;18.83;;;11.00;;
9438;SDS011;5176;42.622;25.386;2023-04-12T07:55:53;7.20;;;5.83;;
9438;SDS011;5176;42.622;25.386;2023-04-12T07:58:22;5.23;;;4.57;;
9438;SDS011;5176;42.622;25.386;2023-04-12T08:00:52;5.47;;;4.97;;
9438;SDS011;5176;42.622;25.386;2023-04-12T08:03:22;6.23;;;5.17;;
9438;SDS011;5176;42.622;25.386;2023-04-12T08:05:51;5.70;;;5.03;;
9438;SDS011;5176;42.622;25.386;2023-04-12T08:08:21;8.87;;;7.27;;
9438;SDS011;5176;42.622;25.386;2023-04-12T08:10:50;6.03;;;5.10;;
9438;SDS011;5176;42.622;25.386;2023-04-12T08:13:19;6.20;;;5.60;;
9438;SDS011;5176;42.622;25.386;2023-04-12T08:15:47;5.00;;;4.33;;
9438;SDS011;5176;42.622;25.386;2023-04-12T08:18:16;4.00;;;3.50;;
9438;SDS011;5176;42.622;25.386;2023-04-12T08:20:46;4.73;;;4.33;;
9438;SDS011;5176;42.622;25.386;2023-04-12T08:23:15;4.50;;;4.00;;
9438;SDS011;5176;42.622;25.386;2023-04-12T08:25:45;4.07;;;3.67;;
9438;SDS011;5176;42.622;25.386;2023-04-12T08:28:15;6.50;;;5.07;;
9438;SDS011;5176;42.622;25.386;2023-04-12T08:30:43;5.20;;;4.70;;
9438;SDS011;5176;42.622;25.386;2023-04-12T08:33:12;3.73;;;3.43;;
9438;SDS011;5176;42.622;25.386;2023-04-12T08:35:41;4.30;;;3.90;;
9438;SDS011;5176;42.622;25.386;2023-04-12T08:38:10;4.20;;;3.53;;
9438;SDS011;5176;42.622;25.386;2023-04-12T08:40:40;4.03;;;3.73;;
9438;SDS011;5176;42.622;25.386;2023-04-12T08:43:11;3.47;;;3.17;;
9438;SDS011;5176;42.622;25.386;2023-04-12T08:45:40;3.17;;;2.87;;
9438;SDS011;5176;42.622;25.386;2023-04-12T08:48:09;4.47;;;3.13;;
9438;SDS011;5176;42.622;25.386;2023-04-12T08:50:40;3.03;;;2.73;;
9438;SDS011;5176;42.622;25.386;2023-04-12T08:53:10;3.57;;;3.23;;
9438;SDS011;5176;42.622;25.386;2023-04-12T08:55:38;3.73;;;3.43;;
9438;SDS011;5176;42.622;25.386;2023-04-12T08:58:12;2.83;;;2.63;;
9438;SDS011;5176;42.622;25.386;2023-04-12T09:00:41;6.67;;;5.97;;
9438;SDS011;5176;42.622;25.386;2023-04-12T09:03:12;3.37;;;2.70;;
9438;SDS011;5176;42.622;25.386;2023-04-12T09:05:41;3.70;;;3.40;;
9438;SDS011;5176;42.622;25.386;2023-04-12T09:08:10;4.37;;;3.17;;
9438;SDS011;5176;42.622;25.386;2023-04-12T09:10:38;2.50;;;2.33;;
9438;SDS011;5176;42.622;25.386;2023-04-12T09:13:08;7.40;;;5.97;;
9438;SDS011;5176;42.622;25.386;2023-04-12T09:15:46;5.00;;;4.27;;
9438;SDS011;5176;42.622;25.386;2023-04-12T09:18:17;8.17;;;5.77;;
9438;SDS011;5176;42.622;25.386;2023-04-12T09:20:45;11.57;;;8.10;;
9438;SDS011;5176;42.622;25.386;2023-04-12T09:23:16;8.17;;;4.83;;
9438;SDS011;5176;42.622;25.386;2023-04-12T09:25:46;3.50;;;2.63;;
9438;SDS011;5176;42.622;25.386;2023-04-12T09:28:17;7.07;;;6.30;;
9438;SDS011;5176;42.622;25.386;2023-04-12T09:30:54;3.23;;;2.13;;
9438;SDS011;5176;42.622;25.386;2023-04-12T09:33:31;4.20;;;3.80;;
9438;SDS011;5176;42.622;25.386;2023-04-12T09:36:01;8.73;;;7.87;;
9438;SDS011;5176;42.622;25.386;2023-04-12T09:38:30;5.53;;;3.87;;
9438;SDS011;5176;42.622;25.386;2023-04-12T09:41:14;2.97;;;2.73;;
9438;SDS011;5176;42.622;25.386;2023-04-12T09:43:44;4.13;;;3.73;;
9438;SDS011;5176;42.622;25.386;2023-04-12T09:46:15;4.90;;;4.40;;
9438;SDS011;5176;42.622;25.386;2023-04-12T09:48:47;6.33;;;3.00;;
9438;SDS011;5176;42.622;25.386;2023-04-12T09:51:24;2.20;;;2.00;;
9438;SDS011;5176;42.622;25.386;2023-04-12T09:53:56;2.00;;;1.90;;
9438;SDS011;5176;42.622;25.386;2023-04-12T09:56:27;4.97;;;3.00;;
9438;SDS011;5176;42.622;25.386;2023-04-12T09:58:59;2.93;;;2.40;;
9438;SDS011;5176;42.622;25.386;2023-04-12T10:01:31;3.80;;;3.27;;
9438;SDS011;5176;42.622;25.386;2023-04-12T10:04:02;3.87;;;3.40;;
9438;SDS011;5176;42.622;25.386;2023-04-12T10:06:32;4.40;;;3.97;;
9438;SDS011;5176;42.622;25.386;2023-04-12T10:09:02;3.77;;;3.47;;
9438;SDS011;5176;42.622;25.386;2023-04-12T10:11:32;3.10;;;2.90;;
9438;SDS011;5176;42.622;25.386;2023-04-12T10:14:01;2.73;;;2.53;;
9438;SDS011;5176;42.622;25.386;2023-04-12T10:16:32;4.37;;;2.93;;
9438;SDS011;5176;42.622;25.386;2023-04-12T10:19:01;2.80;;;2.50;;
9438;SDS011;5176;42.622;25.386;2023-04-12T10:21:30;2.73;;;2.53;;
9438;SDS011;5176;42.622;25.386;2023-04-12T10:23:59;6.13;;;3.97;;
9438;SDS011;5176;42.622;25.386;2023-04-12T10:26:28;2.93;;;2.73;;
9438;SDS011;5176;42.622;25.386;2023-04-12T10:31:53;3.33;;;2.80;;
9438;SDS011;5176;42.622;25.386;2023-04-12T10:34:23;3.00;;;2.70;;
9438;SDS011;5176;42.622;25.386;2023-04-12T10:36:54;1.93;;;1.77;;
9438;SDS011;5176;42.622;25.386;2023-04-12T10:39:35;3.33;;;2.53;;
9438;SDS011;5176;42.622;25.386;2023-04-12T10:42:14;2.73;;;2.53;;
9438;SDS011;5176;42.622;25.386;2023-04-12T10:44:44;2.83;;;2.63;;
9438;SDS011;5176;42.622;25.386;2023-04-12T10:47:14;4.47;;;3.47;;
9438;SDS011;5176;42.622;25.386;2023-04-12T10:52:55;3.60;;;3.30;;
9438;SDS011;5176;42.622;25.386;2023-04-12T10:55:53;6.03;;;2.77;;
9438;SDS011;5176;42.622;25.386;2023-04-12T11:01:25;2.50;;;2.30;;
9438;SDS011;5176;42.622;25.386;2023-04-12T11:04:07;2.60;;;2.40;;
9438;SDS011;5176;42.622;25.386;2023-04-12T11:06:39;2.60;;;2.00;;
9438;SDS011;5176;42.622;25.386;2023-04-12T11:09:20;2.87;;;2.67;;
9438;SDS011;5176;42.622;25.386;2023-04-12T11:11:55;2.33;;;2.23;;
9438;SDS011;5176;42.622;25.386;2023-04-12T11:14:26;2.53;;;2.33;;
9438;SDS011;5176;42.622;25.386;2023-04-12T11:19:55;2.50;;;2.30;;
9438;SDS011;5176;42.622;25.386;2023-04-12T11:22:25;4.03;;;2.40;;
9438;SDS011;5176;42.622;25.386;2023-04-12T11:24:56;4.60;;;2.73;;
9438;SDS011;5176;42.622;25.386;2023-04-12T11:27:26;2.70;;;2.50;;
9438;SDS011;5176;42.622;25.386;2023-04-12T11:29:58;4.37;;;3.50;;
9438;SDS011;5176;42.622;25.386;2023-04-12T11:32:28;2.50;;;2.27;;
9438;SDS011;5176;42.622;25.386;2023-04-12T11:35:01;2.30;;;2.10;;
9438;SDS011;5176;42.622;25.386;2023-04-12T11:37:29;2.90;;;2.33;;
9438;SDS011;5176;42.622;25.386;2023-04-12T11:39:58;2.83;;;2.50;;
9438;SDS011;5176;42.622;25.386;2023-04-12T11:42:27;2.20;;;2.10;;
9438;SDS011;5176;42.622;25.386;2023-04-12T11:44:56;2.70;;;2.23;;
9438;SDS011;5176;42.622;25.386;2023-04-12T11:47:26;2.07;;;1.97;;
9438;SDS011;5176;42.622;25.386;2023-04-12T11:49:55;4.40;;;2.07;;
9438;SDS011;5176;42.622;25.386;2023-04-12T11:52:28;1.83;;;1.73;;
9438;SDS011;5176;42.622;25.386;2023-04-12T11:54:59;1.90;;;1.80;;
9438;SDS011;5176;42.622;25.386;2023-04-12T11:57:30;1.87;;;1.67;;
9438;SDS011;5176;42.622;25.386;2023-04-12T12:00:00;1.80;;;1.70;;
9438;SDS011;5176;42.622;25.386;2023-04-12T12:02:32;1.73;;;1.60;;
9438;SDS011;5176;42.622;25.386;2023-04-12T12:05:02;2.17;;;1.57;;
9438;SDS011;5176;42.622;25.386;2023-04-12T12:07:34;1.63;;;1.60;;
9438;SDS011;5176;42.622;25.386;2023-04-12T12:10:05;1.90;;;1.80;;
9438;SDS011;5176;42.622;25.386;2023-04-12T12:12:34;1.43;;;1.43;;
9438;SDS011;5176;42.622;25.386;2023-04-12T12:15:03;3.83;;;1.87;;
9438;SDS011;5176;42.622;25.386;2023-04-12T12:17:34;1.67;;;1.57;;
9438;SDS011;5176;42.622;25.386;2023-04-12T12:20:04;1.48;;;1.38;;
9438;SDS011;5176;42.622;25.386;2023-04-12T12:22:35;1.97;;;1.80;;
9438;SDS011;5176;42.622;25.386;2023-04-12T12:25:04;1.60;;;1.50;;
9438;SDS011;5176;42.622;25.386;2023-04-12T12:27:37;2.10;;;1.60;;
9438;SDS011;5176;42.622;25.386;2023-04-12T12:30:09;3.20;;;2.63;;
9438;SDS011;5176;42.622;25.386;2023-04-12T12:32:38;3.55;;;2.60;;
9438;SDS011;5176;42.622;25.386;2023-04-12T12:35:07;4.40;;;3.00;;
9438;SDS011;5176;42.622;25.386;2023-04-12T12:37:46;4.73;;;2.50;;
9438;SDS011;5176;42.622;25.386;2023-04-12T12:40:16;2.88;;;2.65;;
9438;SDS011;5176;42.622;25.386;2023-04-12T12:42:47;2.67;;;2.47;;
9438;SDS011;5176;42.622;25.386;2023-04-12T12:45:18;6.00;;;4.73;;
9438;SDS011;5176;42.622;25.386;2023-04-12T12:47:49;15.07;;;5.73;;
9438;SDS011;5176;42.622;25.386;2023-04-12T12:50:21;3.70;;;2.80;;
9438;SDS011;5176;42.622;25.386;2023-04-12T12:52:53;5.57;;;3.00;;
9438;SDS011;5176;42.622;25.386;2023-04-12T12:55:22;9.43;;;2.87;;
9438;SDS011;5176;42.622;25.386;2023-04-12T12:57:52;4.33;;;3.93;;
9438;SDS011;5176;42.622;25.386;2023-04-12T13:00:22;4.20;;;3.40;;
9438;SDS011;5176;42.622;25.386;2023-04-12T13:02:52;3.67;;;2.90;;
9438;SDS011;5176;42.622;25.386;2023-04-12T13:05:20;4.17;;;3.87;;
9438;SDS011;5176;42.622;25.386;2023-04-12T13:07:49;4.60;;;3.50;;
9438;SDS011;5176;42.622;25.386;2023-04-12T13:10:19;7.23;;;4.20;;
9438;SDS011;5176;42.622;25.386;2023-04-12T13:12:48;6.90;;;3.10;;
9438;SDS011;5176;42.622;25.386;2023-04-12T13:15:17;7.07;;;3.87;;
9438;SDS011;5176;42.622;25.386;2023-04-12T13:17:46;5.20;;;3.70;;
9438;SDS011;5176;42.622;25.386;2023-04-12T13:20:14;5.77;;;3.80;;
9438;SDS011;5176;42.622;25.386;2023-04-12T13:22:43;15.47;;;8.50;;
9438;SDS011;5176;42.622;25.386;2023-04-12T13:25:12;7.07;;;6.10;;
9438;SDS011;5176;42.622;25.386;2023-04-12T13:27:43;11.23;;;6.03;;
9438;SDS011;5176;42.622;25.386;2023-04-12T13:30:11;8.07;;;3.20;;
9438;SDS011;5176;42.622;25.386;2023-04-12T13:32:40;5.43;;;3.20;;
9438;SDS011;5176;42.622;25.386;2023-04-12T13:35:10;3.70;;;3.40;;
9438;SDS011;5176;42.622;25.386;2023-04-12T13:37:39;4.32;;;3.90;;
9438;SDS011;5176;42.622;25.386;2023-04-12T13:40:08;4.13;;;3.10;;
9438;SDS011;5176;42.622;25.386;2023-04-12T13:42:37;7.47;;;3.20;;
9438;SDS011;5176;42.622;25.386;2023-04-12T13:45:09;6.47;;;2.90;;
9438;SDS011;5176;42.622;25.386;2023-04-12T13:47:38;5.23;;;2.93;;
9438;SDS011;5176;42.622;25.386;2023-04-12T13:50:07;2.90;;;2.70;;
9438;SDS011;5176;42.622;25.386;2023-04-12T13:52:36;5.17;;;3.20;;
9438;SDS011;5176;42.622;25.386;2023-04-12T13:55:05;7.72;;;3.78;;
9438;SDS011;5176;42.622;25.386;2023-04-12T13:57:34;4.57;;;3.20;;
9438;SDS011;5176;42.622;25.386;2023-04-12T14:00:03;7.68;;;3.40;;
9438;SDS011;5176;42.622;25.386;2023-04-12T14:02:35;3.83;;;3.33;;
9438;SDS011;5176;42.622;25.386;2023-04-12T14:05:04;12.13;;;2.80;;
9438;SDS011;5176;42.622;25.386;2023-04-12T14:07:33;6.30;;;2.63;;
9438;SDS011;5176;42.622;25.386;2023-04-12T14:10:02;3.47;;;2.83;;
9438;SDS011;5176;42.622;25.386;2023-04-12T14:12:31;2.53;;;2.23;;
9438;SDS011;5176;42.622;25.386;2023-04-12T14:15:00;6.90;;;3.03;;
9438;SDS011;5176;42.622;25.386;2023-04-12T14:17:29;3.87;;;3.00;;
9438;SDS011;5176;42.622;25.386;2023-04-12T14:19:59;2.67;;;2.30;;
9438;SDS011;5176;42.622;25.386;2023-04-12T14:22:31;4.17;;;3.50;;
9438;SDS011;5176;42.622;25.386;2023-04-12T14:24:59;6.50;;;3.20;;
9438;SDS011;5176;42.622;25.386;2023-04-12T14:27:28;4.57;;;2.27;;
9438;SDS011;5176;42.622;25.386;2023-04-12T14:29:57;4.50;;;2.83;;
9438;SDS011;5176;42.622;25.386;2023-04-12T14:32:25;4.38;;;2.88;;
9438;SDS011;5176;42.622;25.386;2023-04-12T14:34:54;4.83;;;2.83;;
9438;SDS011;5176;42.622;25.386;2023-04-12T14:37:24;8.90;;;3.45;;
9438;SDS011;5176;42.622;25.386;2023-04-12T14:39:52;4.50;;;2.40;;
9438;SDS011;5176;42.622;25.386;2023-04-12T14:42:21;9.85;;;5.88;;
9438;SDS011;5176;42.622;25.386;2023-04-12T14:44:50;5.18;;;3.30;;
9438;SDS011;5176;42.622;25.386;2023-04-12T14:47:18;5.93;;;3.20;;
9438;SDS011;5176;42.622;25.386;2023-04-12T14:49:47;6.40;;;2.93;;
9438;SDS011;5176;42.622;25.386;2023-04-12T14:52:15;8.23;;;4.55;;
9438;SDS011;5176;42.622;25.386;2023-04-12T14:54:45;7.03;;;2.63;;
9438;SDS011;5176;42.622;25.386;2023-04-12T14:57:14;3.55;;;2.85;;
9438;SDS011;5176;42.622;25.386;2023-04-12T14:59:42;6.45;;;2.78;;
9438;SDS011;5176;42.622;25.386;2023-04-12T15:02:11;4.57;;;3.27;;
9438;SDS011;5176;42.622;25.386;2023-04-12T15:04:40;5.90;;;3.17;;
9438;SDS011;5176;42.622;25.386;2023-04-12T15:07:08;6.67;;;3.27;;
9438;SDS011;5176;42.622;25.386;2023-04-12T15:09:37;4.70;;;2.77;;
9438;SDS011;5176;42.622;25.386;2023-04-12T15:12:07;5.13;;;3.50;;
9438;SDS011;5176;42.622;25.386;2023-04-12T15:14:35;6.03;;;4.13;;
9438;SDS011;5176;42.622;25.386;2023-04-12T15:17:04;7.37;;;6.63;;
9438;SDS011;5176;42.622;25.386;2023-04-12T15:19:33;19.03;;;11.97;;
9438;SDS011;5176;42.622;25.386;2023-04-12T15:22:02;5.23;;;3.67;;
9438;SDS011;5176;42.622;25.386;2023-04-12T15:24:30;6.67;;;4.30;;
9438;SDS011;5176;42.622;25.386;2023-04-12T15:26:59;4.87;;;3.87;;
9438;SDS011;5176;42.622;25.386;2023-04-12T15:29:30;5.90;;;3.10;;